createdAt,value
2023-04-09T00:01:56.933Z,100.00
2023-04-09T00:04:23.980Z,100.00
2023-04-09T00:06:50.949Z,100.00
2023-04-09T00:09:17.828Z,100.00
2023-04-09T00:11:44.658Z,100.00
2023-04-09T00:14:11.523Z,100.00
2023-04-09T00:16:38.435Z,100.00
2023-04-09T00:19:06.096Z,100.00
2023-04-09T00:21:32.915Z,100.00
2023-04-09T00:23:59.803Z,100.00
2023-04-09T00:26:26.726Z,100.00
2023-04-09T00:28:53.756Z,100.00
2023-04-09T00:31:21.003Z,100.00
2023-04-09T00:33:48.045Z,100.00
2023-04-09T00:36:15.037Z,100.00
2023-04-09T00:38:42.119Z,100.00
2023-04-09T00:41:09.034Z,100.00
2023-04-09T00:43:36.230Z,100.00
2023-04-09T00:46:03.246Z,100.00
2023-04-09T00:48:30.517Z,100.00
2023-04-09T00:50:57.499Z,100.00
2023-04-09T00:53:25.021Z,100.00
2023-04-09T00:55:52.772Z,100.00
2023-04-09T00:58:19.755Z,100.00
2023-04-09T01:00:46.742Z,100.00
2023-04-09T01:03:13.855Z,100.00
2023-04-09T01:05:54.139Z,100.00
2023-04-09T01:08:32.206Z,100.00
2023-04-09T01:11:07.317Z,100.00
2023-04-09T01:13:56.035Z,100.00
2023-04-09T01:16:24.422Z,99.95
2023-04-09T01:18:59.705Z,98.18
2023-04-09T01:21:31.379Z,97.82
2023-04-09T01:24:16.745Z,98.38
2023-04-09T01:26:57.339Z,100.00
2023-04-09T01:29:31.734Z,99.07
2023-04-09T01:31:59.680Z,98.17
2023-04-09T01:34:28.798Z,97.50
2023-04-09T01:36:58.112Z,97.63
2023-04-09T01:39:25.692Z,95.09
2023-04-09T01:41:53.112Z,96.02
2023-04-09T01:44:20.765Z,97.79
2023-04-09T01:46:48.465Z,99.31
2023-04-09T01:49:16.144Z,100.00
2023-04-09T01:51:43.524Z,100.00
2023-04-09T01:54:10.601Z,100.00
2023-04-09T01:56:44.593Z,100.00
2023-04-09T01:59:11.820Z,100.00
2023-04-09T02:01:53.853Z,99.18
2023-04-09T02:04:33.117Z,97.58
2023-04-09T02:07:18.618Z,97.18
2023-04-09T02:09:48.053Z,97.29
2023-04-09T02:12:17.760Z,100.00
2023-04-09T02:14:46.959Z,100.00
2023-04-09T02:17:14.037Z,100.00
2023-04-09T02:19:44.950Z,100.00
2023-04-09T02:22:12.733Z,99.29
2023-04-09T02:24:40.666Z,97.84
2023-04-09T02:27:08.179Z,95.58
2023-04-09T02:29:35.018Z,95.85
2023-04-09T02:32:01.910Z,95.10
2023-04-09T02:34:28.813Z,94.05
2023-04-09T02:36:55.728Z,94.46
2023-04-09T02:39:22.605Z,96.54
2023-04-09T02:41:49.501Z,97.49
2023-04-09T02:44:16.562Z,98.42
2023-04-09T02:46:44.103Z,98.94
2023-04-09T02:49:11.008Z,99.15
2023-04-09T02:51:38.035Z,100.00
2023-04-09T02:54:05.093Z,100.00
2023-04-09T02:56:31.982Z,100.00
2023-04-09T02:58:58.865Z,100.00
2023-04-09T03:01:25.883Z,100.00
2023-04-09T03:03:52.949Z,100.00
2023-04-09T03:06:19.914Z,100.00
2023-04-09T03:08:46.763Z,100.00
2023-04-09T03:11:13.665Z,100.00
2023-04-09T03:13:40.584Z,100.00
2023-04-09T03:16:08.604Z,100.00
2023-04-09T03:18:36.069Z,100.00
2023-04-09T03:21:07.655Z,100.00
2023-04-09T03:23:37.272Z,100.00
2023-04-09T03:26:06.437Z,100.00
2023-04-09T03:28:44.022Z,100.00
2023-04-09T03:31:10.964Z,100.00
2023-04-09T03:33:40.381Z,100.00
2023-04-09T03:36:09.157Z,100.00
2023-04-09T03:38:56.451Z,100.00
2023-04-09T03:41:29.010Z,100.00
2023-04-09T03:43:58.242Z,100.00
2023-04-09T03:46:29.826Z,100.00
2023-04-09T03:49:00.800Z,100.00
2023-04-09T03:51:36.801Z,100.00
2023-04-09T03:54:04.439Z,100.00
2023-04-09T03:56:31.882Z,99.06
2023-04-09T03:58:58.766Z,97.67
2023-04-09T04:01:35.108Z,96.06
2023-04-09T04:04:02.770Z,95.16
2023-04-09T04:06:49.727Z,96.76
2023-04-09T04:09:48.813Z,96.29
2023-04-09T04:12:18.549Z,95.09
2023-04-09T04:15:03.694Z,96.85
2023-04-09T04:17:50.862Z,96.58
2023-04-09T04:20:36.469Z,96.28
2023-04-09T04:23:08.388Z,97.60
2023-04-09T04:25:42.589Z,97.37
2023-04-09T04:28:13.006Z,94.65
2023-04-09T04:30:43.003Z,95.55
2023-04-09T04:33:10.903Z,93.79
2023-04-09T04:35:44.281Z,91.17
2023-04-09T04:38:27.826Z,88.86
2023-04-09T04:40:55.656Z,87.00
2023-04-09T04:43:23.677Z,86.40
2023-04-09T04:45:54.024Z,84.38
2023-04-09T04:48:24.985Z,85.78
2023-04-09T04:50:59.197Z,86.54
2023-04-09T04:53:31.230Z,85.09
2023-04-09T04:56:01.332Z,86.32
2023-04-09T04:58:29.522Z,84.11
2023-04-09T05:01:00.515Z,84.16
2023-04-09T05:03:27.903Z,88.66
2023-04-09T05:06:13.318Z,89.46
2023-04-09T05:08:43.716Z,88.59
2023-04-09T05:11:15.243Z,86.85
2023-04-09T05:13:43.549Z,86.44
2023-04-09T05:16:20.917Z,88.01
2023-04-09T05:18:54.910Z,90.55
2023-04-09T05:21:22.109Z,86.84
2023-04-09T05:23:51.049Z,82.45
2023-04-09T05:26:17.947Z,77.49
2023-04-09T05:28:57.558Z,65.97
2023-04-09T05:31:25.651Z,61.88
2023-04-09T05:34:00.159Z,50.86
2023-04-09T05:36:36.548Z,50.09
2023-04-09T05:39:03.523Z,48.50
2023-04-09T05:41:32.819Z,44.78
2023-04-09T05:44:22.576Z,45.51
2023-04-09T05:46:51.649Z,49.54
2023-04-09T05:49:23.510Z,55.10
2023-04-09T05:51:53.240Z,62.33
2023-04-09T05:54:28.715Z,65.86
2023-04-09T05:56:55.865Z,65.59
2023-04-09T05:59:23.002Z,70.35
2023-04-09T06:01:49.981Z,69.95
2023-04-09T06:04:17.354Z,76.89
2023-04-09T06:06:44.345Z,77.26
2023-04-09T06:09:11.195Z,76.49
2023-04-09T06:11:38.539Z,79.72
2023-04-09T06:14:05.720Z,82.65
2023-04-09T06:16:33.495Z,79.23
2023-04-09T06:19:00.512Z,76.35
2023-04-09T06:21:27.327Z,79.37
2023-04-09T06:23:54.479Z,77.95
2023-04-09T06:26:21.698Z,77.95
2023-04-09T06:28:48.595Z,75.82
2023-04-09T06:31:15.753Z,80.88
2023-04-09T06:33:42.717Z,76.34
2023-04-09T06:36:09.686Z,74.59
2023-04-09T06:38:36.596Z,73.94
2023-04-09T06:41:07.127Z,70.62
2023-04-09T06:43:34.000Z,70.80
2023-04-09T06:46:00.882Z,68.98
2023-04-09T06:48:27.752Z,70.10
2023-04-09T06:50:54.793Z,70.90
2023-04-09T06:53:25.797Z,71.98
2023-04-09T06:55:52.798Z,67.37
2023-04-09T06:58:21.199Z,66.53
2023-04-09T07:00:48.139Z,65.64
2023-04-09T07:03:15.194Z,61.27
2023-04-09T07:05:42.174Z,59.66
2023-04-09T07:08:09.050Z,58.37
2023-04-09T07:10:35.997Z,53.92
2023-04-09T07:13:03.368Z,54.93
2023-04-09T07:15:30.392Z,57.35
2023-04-09T07:17:57.975Z,58.52
2023-04-09T07:20:24.883Z,56.94
2023-04-09T07:22:52.012Z,56.74
2023-04-09T07:25:18.949Z,57.57
2023-04-09T07:27:46.109Z,56.16
2023-04-09T07:30:13.151Z,58.48
2023-04-09T07:32:40.153Z,58.46
2023-04-09T07:35:08.077Z,59.03
2023-04-09T07:37:34.974Z,64.42
2023-04-09T07:40:04.131Z,63.81
2023-04-09T07:42:31.167Z,63.66
2023-04-09T07:44:58.064Z,63.87
2023-04-09T07:47:25.232Z,65.66
2023-04-09T07:49:52.176Z,64.54
2023-04-09T07:52:20.308Z,64.44
2023-04-09T07:54:47.197Z,62.67
2023-04-09T07:57:14.147Z,60.96
2023-04-09T07:59:41.241Z,58.04
2023-04-09T08:02:08.168Z,56.08
2023-04-09T08:04:35.645Z,55.96
2023-04-09T08:07:02.680Z,62.29
2023-04-09T08:09:29.520Z,63.06
2023-04-09T08:11:57.332Z,62.66
2023-04-09T08:14:24.233Z,65.69
2023-04-09T08:16:51.392Z,66.63
2023-04-09T08:19:19.246Z,66.41
2023-04-09T08:21:48.960Z,67.16
2023-04-09T08:24:15.968Z,64.01
2023-04-09T08:26:43.231Z,65.06
2023-04-09T08:29:10.424Z,67.98
2023-04-09T08:31:37.666Z,67.51
2023-04-09T08:34:04.962Z,69.60
2023-04-09T08:36:32.734Z,69.19
2023-04-09T08:39:00.712Z,69.05
2023-04-09T08:41:30.959Z,65.44
2023-04-09T08:43:59.473Z,66.37
2023-04-09T08:46:27.877Z,66.13
2023-04-09T08:48:55.206Z,64.17
2023-04-09T08:51:23.276Z,64.92
2023-04-09T08:54:00.066Z,68.06
2023-04-09T08:56:28.499Z,62.24
2023-04-09T08:58:56.366Z,58.55
2023-04-09T09:01:24.343Z,64.45
2023-04-09T09:03:56.608Z,60.09
2023-04-09T09:06:24.834Z,59.77
2023-04-09T09:09:06.987Z,61.46
2023-04-09T09:11:34.900Z,59.32
2023-04-09T09:14:06.194Z,57.42
2023-04-09T09:16:35.018Z,55.93
2023-04-09T09:19:02.571Z,57.43
2023-04-09T09:21:30.255Z,57.53
2023-04-09T09:23:57.827Z,57.53
2023-04-09T09:26:26.082Z,56.19
2023-04-09T09:28:53.599Z,60.05
2023-04-09T09:31:22.163Z,57.19
2023-04-09T09:33:50.550Z,60.39
2023-04-09T09:36:43.865Z,58.75
2023-04-09T09:39:12.364Z,58.82
2023-04-09T09:41:40.076Z,58.30
2023-04-09T09:44:07.862Z,59.80
2023-04-09T09:46:35.885Z,56.17
2023-04-09T09:49:03.131Z,55.78
2023-04-09T09:51:32.037Z,54.06
2023-04-09T09:53:59.006Z,56.16
2023-04-09T09:56:32.827Z,53.91
2023-04-09T09:59:35.466Z,55.60
2023-04-09T10:02:05.423Z,53.70
2023-04-09T10:04:34.973Z,54.64
2023-04-09T10:07:04.631Z,52.52
2023-04-09T10:09:32.479Z,53.82
2023-04-09T10:12:00.986Z,55.51
2023-04-09T10:14:29.531Z,48.52
2023-04-09T10:16:56.825Z,50.14
2023-04-09T10:19:24.195Z,52.35
2023-04-09T10:21:57.870Z,51.00
2023-04-09T10:24:25.340Z,52.60
2023-04-09T10:26:54.715Z,54.27
2023-04-09T10:29:27.739Z,53.75
2023-04-09T10:32:04.823Z,53.65
2023-04-09T10:34:35.401Z,54.96
2023-04-09T10:37:03.031Z,52.45
2023-04-09T10:39:33.192Z,50.53
2023-04-09T10:42:02.389Z,52.29
2023-04-09T10:44:35.913Z,52.01
2023-04-09T10:47:03.813Z,52.76
2023-04-09T10:49:36.476Z,55.59
2023-04-09T10:52:03.521Z,53.65
2023-04-09T10:54:36.111Z,54.84
2023-04-09T10:57:09.261Z,57.06
2023-04-09T10:59:41.266Z,55.71
2023-04-09T11:02:22.817Z,55.42
2023-04-09T11:05:08.541Z,57.26
2023-04-09T11:07:39.218Z,57.09
2023-04-09T11:10:06.535Z,56.10
2023-04-09T11:12:33.756Z,55.47
2023-04-09T11:15:00.621Z,55.44
2023-04-09T11:17:27.694Z,57.49
2023-04-09T11:19:55.626Z,57.30
2023-04-09T11:22:22.679Z,58.64
2023-04-09T11:24:51.129Z,57.30
2023-04-09T11:27:21.835Z,57.60
2023-04-09T11:29:48.893Z,58.78
2023-04-09T11:32:16.058Z,58.62
2023-04-09T11:34:43.020Z,60.00
2023-04-09T11:37:14.797Z,59.29
2023-04-09T11:39:44.095Z,60.77
2023-04-09T11:42:14.472Z,62.62
2023-04-09T11:44:41.361Z,64.64
2023-04-09T11:47:11.702Z,58.85
2023-04-09T11:49:41.305Z,60.93
2023-04-09T11:52:08.314Z,59.24
2023-04-09T11:54:35.188Z,59.22
2023-04-09T11:57:04.988Z,58.26
2023-04-09T11:59:31.931Z,59.12
2023-04-09T12:01:59.153Z,58.49
2023-04-09T12:04:26.676Z,59.30
2023-04-09T12:06:59.630Z,58.61
2023-04-09T12:09:26.728Z,61.99
2023-04-09T12:11:53.651Z,60.10
2023-04-09T12:14:22.399Z,59.74
2023-04-09T12:16:52.623Z,53.42
2023-04-09T12:19:20.683Z,54.82
2023-04-09T12:21:50.103Z,54.31
2023-04-09T12:24:17.714Z,52.57
2023-04-09T12:26:47.804Z,53.18
2023-04-09T12:29:16.019Z,53.82
2023-04-09T12:31:43.282Z,56.39
2023-04-09T12:34:10.304Z,57.60
2023-04-09T12:36:38.083Z,53.82
2023-04-09T12:39:04.976Z,54.12
2023-04-09T12:41:31.942Z,58.85
2023-04-09T12:43:58.802Z,59.15
2023-04-09T12:46:26.043Z,59.34
2023-04-09T12:48:52.903Z,60.72
2023-04-09T12:51:20.140Z,57.68
2023-04-09T12:53:47.266Z,57.04
2023-04-09T12:56:14.201Z,57.84
2023-04-09T12:58:41.074Z,56.97
2023-04-09T13:01:08.110Z,59.11
2023-04-09T13:03:35.155Z,57.12
2023-04-09T13:06:02.179Z,57.13
2023-04-09T13:08:29.086Z,55.00
2023-04-09T13:10:55.970Z,55.45
2023-04-09T13:13:23.035Z,55.43
2023-04-09T13:15:49.936Z,56.07
2023-04-09T13:18:17.019Z,55.31
2023-04-09T13:20:43.973Z,56.75
2023-04-09T13:23:10.849Z,55.63
2023-04-09T13:25:38.092Z,56.92
2023-04-09T13:28:04.934Z,54.13
2023-04-09T13:30:32.117Z,55.39
2023-04-09T13:32:59.121Z,56.91
2023-04-09T13:35:26.101Z,55.04
2023-04-09T13:37:53.028Z,55.83
2023-04-09T13:40:19.924Z,55.50
2023-04-09T13:42:46.911Z,56.85
2023-04-09T13:45:13.889Z,57.76
2023-04-09T13:47:41.285Z,57.66
2023-04-09T13:50:10.484Z,56.98
2023-04-09T13:52:37.545Z,57.85
2023-04-09T13:55:04.934Z,58.27
2023-04-09T13:57:31.868Z,60.97
2023-04-09T14:00:02.148Z,60.26
2023-04-09T14:02:32.191Z,59.74
2023-04-09T14:04:59.552Z,58.43
2023-04-09T14:07:26.708Z,57.84
2023-04-09T14:09:53.548Z,57.44
2023-04-09T14:12:20.667Z,56.31
2023-04-09T14:14:48.322Z,56.83
2023-04-09T14:17:15.482Z,57.87
2023-04-09T14:19:42.361Z,57.91
2023-04-09T14:22:10.459Z,58.36
2023-04-09T14:24:40.299Z,58.89
2023-04-09T14:27:07.880Z,58.25
2023-04-09T14:29:34.948Z,57.58
2023-04-09T14:32:01.907Z,58.49
2023-04-09T14:34:31.449Z,58.61
2023-04-09T14:36:58.410Z,60.62
2023-04-09T14:39:25.717Z,61.11
2023-04-09T14:41:52.801Z,60.71
2023-04-09T14:44:19.784Z,60.04
2023-04-09T14:46:46.772Z,59.76
2023-04-09T14:49:13.847Z,60.33
2023-04-09T14:51:40.770Z,59.83
2023-04-09T14:54:07.612Z,59.43
2023-04-09T14:56:34.606Z,60.53
2023-04-09T14:59:01.561Z,58.98
2023-04-09T15:01:28.548Z,58.14
2023-04-09T15:03:56.100Z,57.94
2023-04-09T15:06:23.105Z,58.60
2023-04-09T15:08:50.075Z,57.38
2023-04-09T15:11:17.586Z,59.06
2023-04-09T15:13:44.684Z,60.26
2023-04-09T15:16:20.325Z,60.61
2023-04-09T15:18:49.501Z,60.53
2023-04-09T15:21:16.682Z,59.57
2023-04-09T15:23:43.561Z,60.63
2023-04-09T15:26:10.532Z,62.59
2023-04-09T15:28:37.377Z,66.08
2023-04-09T15:31:04.307Z,68.04
2023-04-09T15:33:32.565Z,68.75
2023-04-09T15:35:59.790Z,69.05
2023-04-09T15:38:27.589Z,68.55
2023-04-09T15:40:56.027Z,65.85
2023-04-09T15:43:23.514Z,66.36
2023-04-09T15:45:51.067Z,69.95
2023-04-09T15:48:19.306Z,71.00
2023-04-09T15:50:46.717Z,73.54
2023-04-09T15:53:14.217Z,74.26
2023-04-09T15:55:41.115Z,74.93
2023-04-09T15:58:07.974Z,75.93
2023-04-09T16:00:34.836Z,75.53
2023-04-09T16:03:01.812Z,77.17
2023-04-09T16:05:28.769Z,77.41
2023-04-09T16:07:57.611Z,75.69
2023-04-09T16:10:26.101Z,76.87
2023-04-09T16:12:53.347Z,76.40
2023-04-09T16:15:20.413Z,76.50
2023-04-09T16:17:47.333Z,76.37
2023-04-09T16:20:14.272Z,77.91
2023-04-09T16:22:41.265Z,79.19
2023-04-09T16:25:08.303Z,80.24
2023-04-09T16:27:35.312Z,82.51
2023-04-09T16:30:02.614Z,82.92
2023-04-09T16:32:29.910Z,83.61
2023-04-09T16:35:00.661Z,84.98
2023-04-09T16:37:27.987Z,84.94
2023-04-09T16:39:56.697Z,85.49
2023-04-09T16:42:23.619Z,86.17
2023-04-09T16:44:50.511Z,85.91
2023-04-09T16:47:17.393Z,83.66
2023-04-09T16:49:44.275Z,80.43
2023-04-09T16:52:11.273Z,78.63
2023-04-09T16:54:38.148Z,79.77
2023-04-09T16:57:05.050Z,79.12
2023-04-09T16:59:32.585Z,75.00
2023-04-09T17:01:59.533Z,73.24
2023-04-09T17:04:27.352Z,72.09
2023-04-09T17:06:54.410Z,72.30
2023-04-09T17:09:21.402Z,71.83
2023-04-09T17:11:49.014Z,71.85
2023-04-09T17:14:15.841Z,73.52
2023-04-09T17:16:42.838Z,74.48
2023-04-09T17:19:09.878Z,74.75
2023-04-09T17:21:36.781Z,76.54
2023-04-09T17:24:03.675Z,79.03
2023-04-09T17:26:30.573Z,78.64
2023-04-09T17:28:57.412Z,77.88
2023-04-09T17:31:24.519Z,76.32
2023-04-09T17:33:51.861Z,74.53
2023-04-09T17:36:23.038Z,68.17
2023-04-09T17:38:52.982Z,66.30
2023-04-09T17:41:20.154Z,74.77
2023-04-09T17:43:47.041Z,75.47
2023-04-09T17:46:14.587Z,75.15
2023-04-09T17:48:41.929Z,76.14
2023-04-09T17:51:08.811Z,73.30
2023-04-09T17:53:35.687Z,73.19
2023-04-09T17:56:04.196Z,74.88
2023-04-09T17:58:31.217Z,73.93
2023-04-09T18:00:59.715Z,69.56
2023-04-09T18:03:27.065Z,67.49
2023-04-09T18:05:54.424Z,62.67
2023-04-09T18:08:21.313Z,61.20
2023-04-09T18:11:04.755Z,60.70
2023-04-09T18:13:38.475Z,59.29
2023-04-09T18:16:08.630Z,57.98
2023-04-09T18:18:35.848Z,57.56
2023-04-09T18:21:02.768Z,57.29
2023-04-09T18:23:30.064Z,57.62
2023-04-09T18:25:56.918Z,57.20
2023-04-09T18:28:23.899Z,57.20
2023-04-09T18:30:51.687Z,60.15
2023-04-09T18:33:18.618Z,67.80
2023-04-09T18:35:45.594Z,70.06
2023-04-09T18:38:12.656Z,71.86
2023-04-09T18:40:45.255Z,73.32
2023-04-09T18:43:12.682Z,74.50
2023-04-09T18:45:42.693Z,76.88
2023-04-09T18:48:09.557Z,76.63
2023-04-09T18:50:36.546Z,79.03
2023-04-09T18:53:07.102Z,79.08
2023-04-09T18:55:37.944Z,78.01
2023-04-09T18:58:08.802Z,81.18
2023-04-09T19:00:35.993Z,81.53
2023-04-09T19:03:03.361Z,81.04
2023-04-09T19:05:31.790Z,81.57
2023-04-09T19:07:59.876Z,81.96
2023-04-09T19:10:27.308Z,80.48
2023-04-09T19:12:54.425Z,78.12
2023-04-09T19:15:21.803Z,77.59
2023-04-09T19:17:48.904Z,75.95
2023-04-09T19:20:15.977Z,76.02
2023-04-09T19:22:48.070Z,75.42
2023-04-09T19:25:15.847Z,74.49
2023-04-09T19:27:42.829Z,75.78
2023-04-09T19:30:10.185Z,73.17
2023-04-09T19:32:37.295Z,70.15
2023-04-09T19:35:04.412Z,68.27
2023-04-09T19:37:31.381Z,66.89
2023-04-09T19:39:58.851Z,66.95
2023-04-09T19:42:28.690Z,66.12
2023-04-09T19:44:55.554Z,64.98
2023-04-09T19:47:22.601Z,65.59
2023-04-09T19:49:49.518Z,65.43
2023-04-09T19:52:16.390Z,63.01
2023-04-09T19:54:43.437Z,61.43
2023-04-09T19:57:10.787Z,61.14
2023-04-09T19:59:40.068Z,60.63
2023-04-09T20:02:07.625Z,62.65
2023-04-09T20:04:34.670Z,63.08
2023-04-09T20:07:01.543Z,63.75
2023-04-09T20:09:29.262Z,63.03
2023-04-09T20:11:58.443Z,63.64
2023-04-09T20:14:25.647Z,63.31
2023-04-09T20:16:52.760Z,63.18
2023-04-09T20:19:19.868Z,63.60
2023-04-09T20:21:47.066Z,63.87
2023-04-09T20:24:13.882Z,63.57
2023-04-09T20:26:40.824Z,63.47
2023-04-09T20:29:07.788Z,62.14
2023-04-09T20:31:35.255Z,61.93
2023-04-09T20:34:02.661Z,61.07
2023-04-09T20:36:29.586Z,60.96
2023-04-09T20:38:56.508Z,62.20
2023-04-09T20:41:23.359Z,62.48
2023-04-09T20:43:50.477Z,63.09
2023-04-09T20:46:17.370Z,62.97
2023-04-09T20:48:44.549Z,62.99
2023-04-09T20:51:11.935Z,62.55
2023-04-09T20:53:38.875Z,62.27
2023-04-09T20:56:06.300Z,62.20
2023-04-09T20:58:33.611Z,61.92
2023-04-09T21:01:05.191Z,61.51
2023-04-09T21:03:32.840Z,61.42
2023-04-09T21:05:59.882Z,60.92
2023-04-09T21:08:26.987Z,61.66
2023-04-09T21:10:54.333Z,62.51
2023-04-09T21:13:21.210Z,63.23
2023-04-09T21:15:48.572Z,64.39
2023-04-09T21:18:16.468Z,64.36
2023-04-09T21:20:46.848Z,63.75
2023-04-09T21:23:13.811Z,64.02
2023-04-09T21:25:41.049Z,64.65
2023-04-09T21:28:08.251Z,63.59
2023-04-09T21:30:35.707Z,63.33
2023-04-09T21:33:03.336Z,63.44
2023-04-09T21:35:30.662Z,62.64
2023-04-09T21:37:57.773Z,63.09
2023-04-09T21:40:24.684Z,62.56
2023-04-09T21:42:51.650Z,63.21
2023-04-09T21:45:18.572Z,63.25
2023-04-09T21:47:46.292Z,64.06
2023-04-09T21:50:13.888Z,62.73
2023-04-09T21:52:40.840Z,62.19
2023-04-09T21:55:08.060Z,61.86
2023-04-09T21:57:34.966Z,61.77
2023-04-09T22:00:02.059Z,61.18
2023-04-09T22:02:29.191Z,61.37
2023-04-09T22:04:58.717Z,62.03
2023-04-09T22:07:26.194Z,61.26
2023-04-09T22:09:57.666Z,61.46
2023-04-09T22:12:24.538Z,61.90
2023-04-09T22:14:52.415Z,61.05
2023-04-09T22:17:19.321Z,60.82
2023-04-09T22:19:46.666Z,60.24
2023-04-09T22:22:15.179Z,60.28
2023-04-09T22:24:42.929Z,60.78
2023-04-09T22:27:09.798Z,60.88
2023-04-09T22:29:37.229Z,60.92
2023-04-09T22:32:04.121Z,60.24
2023-04-09T22:34:31.096Z,60.98
2023-04-09T22:36:58.012Z,61.59
2023-04-09T22:39:24.946Z,61.80
2023-04-09T22:41:52.208Z,61.60
2023-04-09T22:44:19.276Z,61.98
2023-04-09T22:46:46.514Z,63.02
2023-04-09T22:49:13.585Z,63.27
2023-04-09T22:51:41.768Z,64.20
2023-04-09T22:54:09.073Z,64.49
2023-04-09T22:56:36.781Z,64.66
2023-04-09T22:59:03.705Z,64.52
2023-04-09T23:01:31.635Z,64.73
2023-04-09T23:03:58.528Z,64.63
2023-04-09T23:06:25.639Z,65.50
2023-04-09T23:08:52.882Z,64.85
2023-04-09T23:11:20.022Z,64.24
2023-04-09T23:13:46.944Z,63.11
2023-04-09T23:16:13.959Z,61.90
2023-04-09T23:18:40.832Z,62.47
2023-04-09T23:21:08.415Z,61.94
2023-04-09T23:23:35.721Z,62.17
2023-04-09T23:26:02.800Z,63.76
2023-04-09T23:28:29.702Z,63.71
2023-04-09T23:30:56.996Z,62.68
2023-04-09T23:33:24.066Z,63.08
2023-04-09T23:35:51.235Z,63.28
2023-04-09T23:38:18.199Z,63.94
2023-04-09T23:40:47.326Z,63.92
2023-04-09T23:43:14.244Z,63.09
2023-04-09T23:45:41.306Z,62.28
2023-04-09T23:48:09.172Z,62.22
2023-04-09T23:50:39.833Z,61.23
2023-04-09T23:53:06.754Z,62.46
2023-04-09T23:55:34.212Z,62.50
2023-04-09T23:58:01.680Z,62.26
